createdAt,value
2018-09-06T00:01:57.091Z,99.90
2018-09-06T00:04:30.115Z,99.90
2018-09-06T00:07:02.582Z,99.90
2018-09-06T00:09:34.343Z,99.90
2018-09-06T00:12:06.318Z,99.90
2018-09-06T00:14:39.021Z,99.90
2018-09-06T00:17:11.191Z,99.90
2018-09-06T00:19:42.547Z,99.90
2018-09-06T00:22:14.537Z,99.90
2018-09-06T00:24:45.970Z,99.90
2018-09-06T00:27:17.659Z,99.90
2018-09-06T00:29:49.096Z,99.90
2018-09-06T00:32:20.967Z,99.90
2018-09-06T00:34:52.529Z,99.90
2018-09-06T00:37:24.090Z,99.30
2018-09-06T00:39:55.481Z,98.60
2018-09-06T00:42:27.275Z,98.80
2018-09-06T00:44:58.570Z,98.70
2018-09-06T00:47:30.122Z,97.30
2018-09-06T00:50:02.362Z,97.40
2018-09-06T00:52:33.900Z,97.20
2018-09-06T00:55:05.262Z,97.10
2018-09-06T00:57:37.147Z,96.20
2018-09-06T01:00:08.898Z,96.10
2018-09-06T01:02:40.598Z,96.60
2018-09-06T01:05:13.125Z,97.20
2018-09-06T01:07:45.390Z,96.90
2018-09-06T01:10:16.622Z,95.80
2018-09-06T01:12:48.418Z,95.40
2018-09-06T01:15:20.003Z,95.50
2018-09-06T01:17:51.870Z,95.60
2018-09-06T01:20:23.200Z,96.20
2018-09-06T01:22:54.965Z,95.80
2018-09-06T01:25:26.494Z,95.60
2018-09-06T01:27:58.208Z,95.30
2018-09-06T01:30:30.026Z,94.70
2018-09-06T01:33:02.474Z,94.50
2018-09-06T01:35:33.853Z,94.20
2018-09-06T01:38:07.051Z,94.50
2018-09-06T01:40:38.600Z,94.20
2018-09-06T01:43:10.433Z,94.10
2018-09-06T01:45:42.001Z,93.70
2018-09-06T01:48:13.613Z,93.50
2018-09-06T01:50:44.960Z,93.60
2018-09-06T01:53:16.342Z,93.20
2018-09-06T01:55:47.739Z,93.40
2018-09-06T01:58:19.466Z,93.10
2018-09-06T02:00:50.785Z,93.10
2018-09-06T02:03:22.668Z,93.20
2018-09-06T02:05:55.182Z,92.50
2018-09-06T02:08:27.089Z,92.60
2018-09-06T02:10:58.427Z,92.50
2018-09-06T02:13:30.093Z,92.00
2018-09-06T02:16:04.854Z,91.60
2018-09-06T02:18:36.818Z,91.60
2018-09-06T02:21:08.394Z,91.10
2018-09-06T02:23:39.645Z,91.10
2018-09-06T02:26:11.282Z,90.80
2018-09-06T02:28:46.017Z,91.40
2018-09-06T02:31:17.477Z,91.10
2018-09-06T02:33:49.409Z,90.60
2018-09-06T02:36:21.318Z,90.50
2018-09-06T02:38:52.906Z,90.40
2018-09-06T02:41:24.861Z,90.30
2018-09-06T02:43:56.313Z,89.70
2018-09-06T02:46:27.814Z,89.50
2018-09-06T02:49:00.614Z,88.80
2018-09-06T02:51:32.153Z,89.10
2018-09-06T02:54:03.903Z,89.20
2018-09-06T02:56:35.994Z,88.60
2018-09-06T02:59:08.780Z,88.40
2018-09-06T03:01:40.374Z,88.30
2018-09-06T03:04:12.897Z,88.30
2018-09-06T03:06:45.869Z,87.80
2018-09-06T03:09:17.477Z,88.00
2018-09-06T03:12:06.956Z,87.90
2018-09-06T03:14:38.940Z,87.70
2018-09-06T03:17:10.624Z,87.90
2018-09-06T03:19:42.399Z,87.70
2018-09-06T03:22:13.704Z,87.60
2018-09-06T03:24:45.526Z,87.10
2018-09-06T03:27:17.137Z,87.00
2018-09-06T03:29:48.697Z,86.90
2018-09-06T03:32:20.175Z,86.80
2018-09-06T03:34:51.843Z,86.50
2018-09-06T03:37:23.391Z,86.60
2018-09-06T03:39:55.048Z,86.50
2018-09-06T03:42:26.593Z,86.90
2018-09-06T03:44:58.760Z,87.00
2018-09-06T03:47:30.438Z,86.40
2018-09-06T03:50:02.742Z,86.60
2018-09-06T03:52:34.094Z,86.50
2018-09-06T03:55:06.013Z,86.50
2018-09-06T03:57:37.745Z,86.40
2018-09-06T04:00:09.398Z,86.50
2018-09-06T04:02:40.713Z,86.30
2018-09-06T04:05:12.549Z,86.20
2018-09-06T04:07:45.058Z,86.00
2018-09-06T04:10:16.878Z,85.60
2018-09-06T04:12:48.482Z,85.40
2018-09-06T04:15:20.036Z,85.00
2018-09-06T04:17:51.351Z,84.50
2018-09-06T04:20:23.252Z,85.10
2018-09-06T04:22:54.549Z,84.20
2018-09-06T04:25:26.382Z,84.60
2018-09-06T04:27:57.843Z,83.80
2018-09-06T04:30:29.462Z,83.70
2018-09-06T04:33:00.953Z,83.70
2018-09-06T04:35:32.882Z,83.30
2018-09-06T04:38:04.493Z,83.40
2018-09-06T04:40:35.991Z,82.20
2018-09-06T04:43:07.361Z,81.80
2018-09-06T04:45:38.930Z,80.40
2018-09-06T04:48:10.250Z,80.20
2018-09-06T04:50:41.935Z,79.80
2018-09-06T04:53:13.289Z,79.90
2018-09-06T04:55:44.993Z,76.80
2018-09-06T04:58:16.729Z,75.80
2018-09-06T05:00:48.486Z,71.20
2018-09-06T05:03:19.850Z,69.50
2018-09-06T05:05:51.588Z,66.80
2018-09-06T05:08:24.181Z,66.70
2018-09-06T05:10:55.780Z,68.10
2018-09-06T05:13:27.004Z,68.50
2018-09-06T05:15:58.505Z,69.80
2018-09-06T05:18:29.732Z,69.20
2018-09-06T05:21:02.446Z,69.70
2018-09-06T05:23:33.753Z,70.20
2018-09-06T05:26:05.603Z,69.00
2018-09-06T05:28:37.122Z,65.80
2018-09-06T05:31:08.745Z,63.90
2018-09-06T05:33:40.124Z,63.20
2018-09-06T05:36:12.069Z,60.70
2018-09-06T05:38:43.368Z,59.80
2018-09-06T05:41:15.589Z,59.90
2018-09-06T05:43:46.966Z,61.90
2018-09-06T05:46:18.891Z,62.30
2018-09-06T05:48:50.276Z,63.40
2018-09-06T05:51:21.893Z,63.60
2018-09-06T05:53:53.432Z,63.30
2018-09-06T05:56:25.188Z,63.80
2018-09-06T05:58:56.501Z,63.80
2018-09-06T06:01:28.319Z,63.60
2018-09-06T06:03:59.537Z,63.20
2018-09-06T06:06:31.185Z,62.40
2018-09-06T06:09:05.258Z,61.90
2018-09-06T06:11:37.067Z,60.90
2018-09-06T06:14:08.553Z,59.50
2018-09-06T06:16:40.078Z,59.70
2018-09-06T06:19:11.391Z,58.50
2018-09-06T06:21:43.466Z,58.20
2018-09-06T06:24:15.108Z,57.90
2018-09-06T06:26:46.689Z,58.00
2018-09-06T06:29:18.130Z,59.10
2018-09-06T06:31:50.313Z,59.20
2018-09-06T06:34:21.848Z,59.20
2018-09-06T06:36:53.500Z,59.30
2018-09-06T06:39:25.039Z,59.60
2018-09-06T06:41:56.771Z,59.00
2018-09-06T06:44:28.101Z,59.40
2018-09-06T06:46:59.871Z,59.50
2018-09-06T06:49:31.353Z,59.60
2018-09-06T06:52:02.905Z,59.70
2018-09-06T06:54:34.382Z,59.50
2018-09-06T06:57:06.145Z,59.30
2018-09-06T06:59:37.579Z,59.40
2018-09-06T07:02:09.469Z,59.30
2018-09-06T07:04:41.110Z,58.90
2018-09-06T07:07:12.566Z,58.80
2018-09-06T07:09:45.554Z,57.70
2018-09-06T07:12:17.457Z,56.70
2018-09-06T07:14:48.682Z,55.90
2018-09-06T07:17:20.394Z,55.30
2018-09-06T07:19:51.955Z,54.90
2018-09-06T07:22:23.538Z,54.80
2018-09-06T07:24:55.079Z,54.60
2018-09-06T07:27:27.018Z,55.90
2018-09-06T07:29:58.538Z,56.20
2018-09-06T07:32:30.121Z,57.10
2018-09-06T07:35:01.671Z,57.00
2018-09-06T07:37:33.187Z,56.60
2018-09-06T07:40:06.764Z,56.80
2018-09-06T07:42:39.042Z,56.00
2018-09-06T07:45:10.236Z,56.30
2018-09-06T07:47:41.694Z,56.50
2018-09-06T07:50:13.061Z,57.00
2018-09-06T07:52:44.987Z,56.90
2018-09-06T07:55:16.691Z,56.40
2018-09-06T07:57:49.181Z,56.00
2018-09-06T08:00:20.582Z,55.90
2018-09-06T08:02:52.472Z,55.10
2018-09-06T08:05:24.097Z,55.20
2018-09-06T08:07:55.714Z,54.90
2018-09-06T08:10:28.185Z,54.80
2018-09-06T08:12:59.905Z,54.90
2018-09-06T08:15:31.222Z,54.90
2018-09-06T08:18:03.985Z,53.20
2018-09-06T08:20:36.142Z,53.50
2018-09-06T08:23:08.894Z,53.20
2018-09-06T08:25:40.127Z,53.90
2018-09-06T08:28:11.885Z,53.20
2018-09-06T08:30:43.682Z,53.20
2018-09-06T08:33:16.926Z,53.70
2018-09-06T08:35:48.289Z,53.40
2018-09-06T08:38:20.317Z,52.70
2018-09-06T08:40:51.730Z,53.50
2018-09-06T08:43:23.422Z,53.00
2018-09-06T08:45:54.775Z,52.00
2018-09-06T08:48:27.476Z,52.80
2018-09-06T08:50:58.972Z,51.90
2018-09-06T08:53:30.653Z,51.90
2018-09-06T08:56:02.241Z,51.70
2018-09-06T08:58:33.973Z,51.50
2018-09-06T09:01:10.306Z,51.00
2018-09-06T09:03:41.884Z,51.30
2018-09-06T09:06:13.339Z,51.90
2018-09-06T09:08:45.430Z,58.40
2018-09-06T09:11:18.022Z,57.10
2018-09-06T09:13:49.438Z,52.10
2018-09-06T09:16:21.038Z,52.40
2018-09-06T09:18:52.485Z,54.70
2018-09-06T09:21:24.174Z,60.00
2018-09-06T09:23:56.121Z,64.20
2018-09-06T09:26:27.622Z,65.10
2018-09-06T09:28:59.789Z,67.50
2018-09-06T09:31:31.315Z,78.20
2018-09-06T09:34:04.133Z,81.60
2018-09-06T09:36:35.439Z,77.00
2018-09-06T09:39:08.331Z,76.00
2018-09-06T09:41:39.768Z,73.30
2018-09-06T09:44:11.130Z,72.00
2018-09-06T09:49:13.433Z,74.60
2018-09-06T09:51:44.945Z,83.80
2018-09-06T09:54:16.356Z,89.20
2018-09-06T09:56:47.895Z,89.30
2018-09-06T09:59:19.606Z,87.80
2018-09-06T10:01:55.964Z,90.90
2018-09-06T10:04:32.477Z,90.50
2018-09-06T10:07:08.747Z,90.80
2018-09-06T10:09:40.414Z,91.90
2018-09-06T10:12:13.295Z,93.20
2018-09-06T10:14:45.317Z,90.80
2018-09-06T10:17:16.651Z,90.90
2018-09-06T10:19:48.395Z,91.50
2018-09-06T10:22:19.997Z,91.40
2018-09-06T10:24:51.590Z,92.60
2018-09-06T10:27:23.772Z,92.10
2018-09-06T10:29:55.489Z,93.40
2018-09-06T10:32:27.097Z,92.10
2018-09-06T10:34:59.137Z,92.20
2018-09-06T10:37:30.258Z,92.80
2018-09-06T10:40:02.160Z,92.40
2018-09-06T10:42:33.937Z,93.10
2018-09-06T10:45:07.317Z,93.90
2018-09-06T10:47:38.650Z,94.00
2018-09-06T10:50:10.490Z,94.40
2018-09-06T10:52:42.050Z,94.80
2018-09-06T10:55:14.400Z,94.50
2018-09-06T10:57:46.161Z,95.40
2018-09-06T11:00:18.065Z,96.10
2018-09-06T11:02:49.779Z,96.40
2018-09-06T11:05:22.208Z,97.00
2018-09-06T11:07:53.662Z,98.30
2018-09-06T11:10:25.638Z,99.70
2018-09-06T11:12:57.999Z,99.40
2018-09-06T11:15:29.854Z,99.20
2018-09-06T11:18:01.445Z,99.40
2018-09-06T11:20:33.422Z,99.40
2018-09-06T11:23:07.376Z,98.50
2018-09-06T11:25:39.174Z,98.90
2018-09-06T11:28:10.423Z,99.60
2018-09-06T11:30:42.298Z,99.90
2018-09-06T11:33:13.967Z,99.90
2018-09-06T11:35:45.474Z,99.90
2018-09-06T11:38:16.965Z,99.90
2018-09-06T11:40:49.230Z,99.80
2018-09-06T11:43:20.852Z,99.60
2018-09-06T11:45:52.537Z,99.80
2018-09-06T11:48:24.115Z,99.50
2018-09-06T11:50:55.874Z,98.90
2018-09-06T11:53:27.142Z,99.90
2018-09-06T11:55:58.805Z,99.90
2018-09-06T11:58:30.325Z,99.90
2018-09-06T12:01:04.785Z,99.90
2018-09-06T12:03:36.574Z,99.90
2018-09-06T12:06:09.714Z,99.90
2018-09-06T12:08:41.047Z,99.10
2018-09-06T12:11:12.872Z,99.30
2018-09-06T12:13:46.303Z,99.90
2018-09-06T12:16:18.110Z,99.90
2018-09-06T12:18:49.422Z,99.90
2018-09-06T12:21:21.178Z,99.90
2018-09-06T12:23:52.669Z,99.90
2018-09-06T12:26:24.283Z,99.90
2018-09-06T12:28:56.422Z,99.90
2018-09-06T12:31:28.702Z,99.90
2018-09-06T12:34:00.334Z,99.90
2018-09-06T12:36:32.081Z,99.90
2018-09-06T12:39:05.498Z,99.90
2018-09-06T12:41:37.090Z,99.90
2018-09-06T12:44:08.549Z,99.90
2018-09-06T12:46:40.428Z,99.90
2018-09-06T12:49:12.194Z,99.90
2018-09-06T12:51:43.868Z,99.90
2018-09-06T12:54:15.333Z,99.90
2018-09-06T12:56:47.230Z,99.90
2018-09-06T12:59:18.806Z,99.90
2018-09-06T13:01:50.417Z,99.90
2018-09-06T13:04:21.902Z,99.90
2018-09-06T13:06:53.833Z,99.90
2018-09-06T13:09:25.112Z,99.90
2018-09-06T13:11:56.706Z,99.90
2018-09-06T13:14:29.768Z,99.90
2018-09-06T13:17:02.513Z,99.90
2018-09-06T13:19:35.873Z,99.90
2018-09-06T13:22:07.413Z,99.90
2018-09-06T13:24:39.287Z,99.90
2018-09-06T13:27:11.104Z,99.90
2018-09-06T13:29:42.442Z,99.90
2018-09-06T13:32:13.953Z,99.90
2018-09-06T13:34:45.330Z,99.90
2018-09-06T13:37:17.153Z,99.90
2018-09-06T13:39:48.394Z,99.90
2018-09-06T13:42:20.038Z,99.90
2018-09-06T13:44:51.643Z,99.90
2018-09-06T13:47:23.426Z,99.90
2018-09-06T13:49:54.865Z,99.90
2018-09-06T13:52:26.897Z,99.90
2018-09-06T13:54:58.018Z,99.90
2018-09-06T13:57:30.014Z,99.90
2018-09-06T14:00:02.405Z,99.90
2018-09-06T14:02:34.414Z,99.90
2018-09-06T14:05:06.025Z,99.90
2018-09-06T14:07:37.830Z,99.90
2018-09-06T14:10:09.651Z,99.90
2018-09-06T14:12:41.312Z,99.90
2018-09-06T14:15:13.918Z,99.90
2018-09-06T14:17:45.373Z,99.90
2018-09-06T14:20:16.868Z,99.90
2018-09-06T14:22:48.244Z,99.90
2018-09-06T14:25:19.701Z,99.90
2018-09-06T14:27:51.472Z,99.90
2018-09-06T14:30:23.490Z,99.90
2018-09-06T14:32:55.015Z,99.90
2018-09-06T14:35:26.245Z,99.90
2018-09-06T14:37:57.879Z,99.90
2018-09-06T14:40:29.489Z,99.90
2018-09-06T14:43:01.141Z,99.90
2018-09-06T14:45:34.233Z,99.90
2018-09-06T14:48:06.113Z,99.90
2018-09-06T14:50:37.454Z,99.90
2018-09-06T14:53:09.338Z,99.90
2018-09-06T14:55:40.844Z,99.90
2018-09-06T14:58:12.830Z,99.90
2018-09-06T15:00:44.053Z,99.90
2018-09-06T15:03:15.888Z,99.90
2018-09-06T15:05:47.425Z,99.90
2018-09-06T15:08:19.107Z,99.90
2018-09-06T15:10:50.461Z,99.20
2018-09-06T15:13:22.373Z,99.00
2018-09-06T15:15:54.917Z,98.70
2018-09-06T15:18:26.749Z,98.60
2018-09-06T15:20:58.129Z,97.90
2018-09-06T15:23:29.887Z,97.60
2018-09-06T15:26:02.281Z,97.00
2018-09-06T15:28:33.957Z,96.70
2018-09-06T15:31:05.571Z,96.30
2018-09-06T15:33:37.118Z,96.10
2018-09-06T15:36:08.957Z,96.00
2018-09-06T15:38:40.795Z,96.10
2018-09-06T15:41:12.529Z,96.10
2018-09-06T15:43:44.957Z,96.20
2018-09-06T15:46:16.635Z,96.10
2018-09-06T15:48:48.481Z,96.10
2018-09-06T15:51:19.816Z,96.10
2018-09-06T15:53:51.654Z,95.80
2018-09-06T15:56:23.101Z,95.60
2018-09-06T15:58:55.564Z,95.50
2018-09-06T16:01:26.789Z,95.30
2018-09-06T16:03:58.558Z,95.20
2018-09-06T16:06:30.173Z,95.20
2018-09-06T16:09:01.749Z,95.10
2018-09-06T16:11:33.089Z,95.20
2018-09-06T16:14:04.965Z,95.40
2018-09-06T16:16:37.928Z,95.50
2018-09-06T16:19:09.978Z,95.80
2018-09-06T16:21:41.539Z,96.10
2018-09-06T16:24:13.452Z,96.30
2018-09-06T16:26:45.217Z,96.50
2018-09-06T16:29:17.421Z,96.70
2018-09-06T16:31:48.717Z,96.60
2018-09-06T16:34:20.651Z,96.30
2018-09-06T16:36:52.193Z,96.30
2018-09-06T16:39:24.173Z,96.40
2018-09-06T16:41:55.432Z,96.20
2018-09-06T16:44:28.082Z,96.10
2018-09-06T16:46:59.574Z,96.20
2018-09-06T16:49:31.929Z,96.10
2018-09-06T16:52:03.145Z,96.00
2018-09-06T16:54:34.838Z,95.90
2018-09-06T16:57:06.401Z,95.80
2018-09-06T16:59:38.165Z,95.60
2018-09-06T17:02:09.590Z,95.30
2018-09-06T17:04:42.205Z,95.20
2018-09-06T17:07:13.666Z,95.00
2018-09-06T17:09:45.522Z,94.80
2018-09-06T17:12:25.169Z,94.80
2018-09-06T17:14:57.412Z,94.80
2018-09-06T17:17:29.891Z,94.70
2018-09-06T17:20:05.620Z,94.70
2018-09-06T17:22:37.038Z,94.50
2018-09-06T17:25:08.649Z,94.50
2018-09-06T17:27:54.453Z,94.80
2018-09-06T17:30:26.152Z,94.40
2018-09-06T17:32:57.444Z,94.30
2018-09-06T17:35:29.361Z,94.20
2018-09-06T17:38:00.717Z,94.20
2018-09-06T17:40:32.594Z,94.10
2018-09-06T17:43:04.266Z,94.10
2018-09-06T17:45:36.370Z,94.00
2018-09-06T17:48:07.909Z,93.80
2018-09-06T17:50:40.029Z,93.70
2018-09-06T17:53:11.612Z,93.60
2018-09-06T17:55:43.174Z,93.40
2018-09-06T17:58:14.498Z,93.60
2018-09-06T18:00:47.637Z,93.50
2018-09-06T18:03:19.437Z,92.30
2018-09-06T18:05:51.558Z,93.60
2018-09-06T18:08:23.093Z,94.40
2018-09-06T18:10:54.896Z,94.70
2018-09-06T18:13:28.042Z,94.80
2018-09-06T18:15:59.945Z,94.30
2018-09-06T18:18:32.801Z,93.80
2018-09-06T18:21:04.557Z,93.40
2018-09-06T18:23:36.151Z,93.10
2018-09-06T18:26:10.876Z,93.20
2018-09-06T18:28:42.317Z,93.10
2018-09-06T18:31:14.250Z,92.60
2018-09-06T18:33:45.688Z,92.80
2018-09-06T18:36:17.545Z,92.70
2018-09-06T18:38:49.734Z,92.70
2018-09-06T18:41:21.433Z,92.70
2018-09-06T18:43:53.247Z,92.60
2018-09-06T18:46:25.194Z,92.50
2018-09-06T18:48:56.719Z,92.50
2018-09-06T18:51:28.602Z,92.60
2018-09-06T18:54:00.056Z,92.50
2018-09-06T18:56:31.891Z,91.80
2018-09-06T18:59:05.383Z,90.50
2018-09-06T19:01:37.650Z,90.60
2018-09-06T19:04:09.235Z,90.80
2018-09-06T19:06:40.737Z,90.50
2018-09-06T19:09:13.307Z,90.30
2018-09-06T19:11:44.894Z,90.30
2018-09-06T19:14:16.449Z,91.30
2018-09-06T19:16:48.103Z,91.50
2018-09-06T19:19:21.039Z,92.00
2018-09-06T19:21:53.039Z,93.20
2018-09-06T19:24:24.617Z,93.60
2018-09-06T19:26:56.301Z,94.40
2018-09-06T19:29:28.302Z,94.60
2018-09-06T19:32:00.047Z,94.10
2018-09-06T19:34:31.524Z,93.70
2018-09-06T19:37:03.981Z,93.20
2018-09-06T19:39:35.448Z,92.80
2018-09-06T19:42:07.699Z,92.70
2018-09-06T19:44:39.122Z,92.80
2018-09-06T19:47:10.657Z,93.00
2018-09-06T19:49:42.173Z,93.00
2018-09-06T19:52:13.789Z,93.10
2018-09-06T19:54:45.091Z,93.30
2018-09-06T19:57:16.638Z,93.50
2018-09-06T19:59:48.194Z,93.70
2018-09-06T20:02:20.249Z,94.60
2018-09-06T20:04:51.781Z,94.50
2018-09-06T20:07:23.361Z,94.40
2018-09-06T20:09:54.901Z,94.70
2018-09-06T20:12:26.485Z,95.50
2018-09-06T20:14:58.535Z,95.90
2018-09-06T20:17:30.585Z,96.10
2018-09-06T20:20:03.773Z,96.20
2018-09-06T20:22:35.585Z,96.20
2018-09-06T20:25:09.369Z,96.40
2018-09-06T20:27:41.626Z,96.70
2018-09-06T20:30:13.079Z,96.80
2018-09-06T20:32:44.645Z,97.00
2018-09-06T20:35:16.098Z,96.90
2018-09-06T20:37:48.066Z,96.80
2018-09-06T20:40:19.712Z,97.20
2018-09-06T20:42:51.406Z,97.80
2018-09-06T20:45:22.837Z,97.60
2018-09-06T20:47:54.512Z,97.70
2018-09-06T20:50:25.837Z,98.00
2018-09-06T20:52:57.705Z,98.00
2018-09-06T20:55:28.972Z,98.20
2018-09-06T20:58:00.683Z,98.80
2018-09-06T21:00:32.220Z,98.80
2018-09-06T21:03:03.875Z,99.10
2018-09-06T21:05:35.265Z,98.90
2018-09-06T21:08:07.251Z,98.80
2018-09-06T21:10:38.657Z,99.20
2018-09-06T21:13:10.711Z,99.50
2018-09-06T21:15:42.086Z,99.50
2018-09-06T21:18:13.997Z,99.40
2018-09-06T21:20:46.274Z,99.50
2018-09-06T21:23:18.061Z,99.60
2018-09-06T21:25:49.357Z,99.60
2018-09-06T21:28:20.910Z,99.90
2018-09-06T21:30:52.074Z,99.80
2018-09-06T21:33:23.820Z,99.90
2018-09-06T21:35:56.471Z,99.90
2018-09-06T21:38:28.086Z,99.90
2018-09-06T21:40:59.625Z,99.90
2018-09-06T21:43:31.527Z,99.90
2018-09-06T21:46:02.938Z,99.90
2018-09-06T21:48:35.123Z,99.90
2018-09-06T21:51:06.596Z,99.90
2018-09-06T21:53:38.165Z,99.90
2018-09-06T21:56:09.520Z,99.90
2018-09-06T21:58:41.530Z,99.90
2018-09-06T22:01:13.089Z,99.90
2018-09-06T22:03:49.411Z,99.90
2018-09-06T22:06:21.272Z,99.90
2018-09-06T22:08:52.998Z,99.90
2018-09-06T22:11:24.593Z,99.90
2018-09-06T22:13:56.259Z,99.90
2018-09-06T22:16:27.780Z,99.90
2018-09-06T22:18:59.529Z,99.90
2018-09-06T22:21:32.205Z,99.90
2018-09-06T22:24:04.906Z,99.90
2018-09-06T22:26:36.354Z,99.90
2018-09-06T22:29:08.490Z,99.90
2018-09-06T22:31:39.974Z,99.90
2018-09-06T22:34:11.746Z,99.90
2018-09-06T22:36:43.109Z,99.90
2018-09-06T22:39:14.953Z,99.90
2018-09-06T22:41:46.240Z,99.90
2018-09-06T22:44:18.105Z,99.90
2018-09-06T22:46:49.561Z,99.90
2018-09-06T22:49:21.087Z,99.90
2018-09-06T22:51:52.358Z,99.90
2018-09-06T22:54:23.762Z,99.90
2018-09-06T22:56:55.448Z,99.90
2018-09-06T22:59:26.873Z,99.90
2018-09-06T23:01:59.245Z,99.90
2018-09-06T23:04:30.777Z,99.90
2018-09-06T23:07:03.810Z,99.90
2018-09-06T23:09:35.717Z,99.90
2018-09-06T23:12:08.553Z,99.90
2018-09-06T23:14:40.625Z,99.90
2018-09-06T23:17:12.086Z,99.90
2018-09-06T23:19:44.005Z,99.90
2018-09-06T23:22:16.180Z,99.90
2018-09-06T23:24:47.801Z,99.90
2018-09-06T23:27:19.116Z,99.90
2018-09-06T23:29:51.082Z,99.90
2018-09-06T23:32:22.397Z,99.90
2018-09-06T23:34:54.041Z,99.90
2018-09-06T23:37:25.481Z,99.90
2018-09-06T23:39:57.773Z,99.90
2018-09-06T23:42:28.932Z,99.90
2018-09-06T23:45:00.661Z,99.90
2018-09-06T23:47:32.566Z,99.90
2018-09-06T23:50:04.437Z,99.90
2018-09-06T23:52:36.218Z,99.90
2018-09-06T23:55:08.454Z,99.90
2018-09-06T23:57:40.149Z,99.90
